Time;durP1;ratioP1;P1;durP2;ratioP2;P2;SDS_P1;SDS_P2;PMS_P1;PMS_P2;Temp;Humidity;BMP_temperature;BMP_pressure;BME280_temperature;BME280_humidity;BME280_pressure;Samples;Min_cycle;Max_cycle;Signal;HPM_P1;HPM_P2
2023/07/28 06:39:12;;;;;;;6.33;3.37;;;18.20;99.90;;;;;;5573845;24;21363;-81
2023/07/28 14:54:59;;;;;;;3.93;1.80;;;22.10;99.90;;;;;;5470191;24;20220;-87
2023/07/28 14:57:26;;;;;;;1.77;1.30;;;22.00;99.90;;;;;;4752892;30;20222;-88
2023/07/28 15:00:02;;;;;;;1.93;1.60;;;21.90;99.90;;;;;;4738259;30;20201;-82
2023/07/28 15:02:29;;;;;;;2.93;1.60;;;21.80;99.90;;;;;;4739792;30;20309;-83
2023/07/28 15:04:56;;;;;;;1.70;1.33;;;21.80;99.90;;;;;;4740054;30;20194;-82
2023/07/28 15:07:24;;;;;;;2.73;1.47;;;21.80;99.90;;;;;;4738734;30;20233;-84
2023/07/28 15:09:50;;;;;;;1.80;1.50;;;21.70;99.90;;;;;;4738516;30;20630;-83
2023/07/28 15:12:17;;;;;;;10.90;2.50;;;21.70;99.90;;;;;;4738437;30;20219;-82
2023/07/28 15:14:44;;;;;;;4.83;1.80;;;21.60;99.90;;;;;;4738485;30;20219;-83
2023/07/28 15:17:11;;;;;;;1.53;1.43;;;21.60;99.90;;;;;;4739470;30;20234;-84
2023/07/28 15:19:38;;;;;;;1.93;1.50;;;21.40;99.90;;;;;;4737681;30;20202;-83
2023/07/28 15:22:05;;;;;;;1.43;1.33;;;21.40;99.90;;;;;;4738650;30;20222;-82
2023/07/28 15:24:32;;;;;;;1.80;1.60;;;21.30;99.90;;;;;;4737676;30;20207;-83
2023/07/28 15:26:59;;;;;;;2.17;1.70;;;21.20;99.90;;;;;;4737385;30;20718;-83
2023/07/28 15:29:26;;;;;;;2.90;1.60;;;21.10;99.90;;;;;;4738335;30;20225;-83
2023/07/28 15:31:54;;;;;;;2.00;1.80;;;21.10;99.90;;;;;;4737573;30;20218;-85
2023/07/28 15:34:21;;;;;;;2.53;1.87;;;20.90;99.90;;;;;;4739154;30;20625;-84
2023/07/28 15:36:48;;;;;;;2.10;1.90;;;20.80;99.90;;;;;;4723363;30;20252;-84
2023/07/28 15:39:16;;;;;;;3.30;2.30;;;20.70;99.90;;;;;;4737718;30;20594;-83
2023/07/28 15:41:42;;;;;;;2.30;2.00;;;20.60;99.90;;;;;;4737470;30;20242;-83
2023/07/28 15:44:10;;;;;;;4.57;3.20;;;20.60;99.90;;;;;;4738948;30;20210;-83
2023/07/28 15:46:37;;;;;;;3.90;2.87;;;20.50;99.90;;;;;;4738968;30;20217;-82
2023/07/28 15:49:04;;;;;;;4.40;2.30;;;20.50;99.90;;;;;;4737817;30;20206;-81
2023/07/28 15:51:31;;;;;;;2.40;2.00;;;20.50;99.90;;;;;;4737746;30;20206;-84
2023/07/28 15:53:59;;;;;;;4.23;2.70;;;20.50;99.90;;;;;;4738042;30;20652;-84
2023/07/28 15:56:26;;;;;;;4.63;2.73;;;20.40;99.90;;;;;;4738249;30;20672;-84
2023/07/28 15:58:53;;;;;;;4.53;2.80;;;20.10;99.90;;;;;;4737589;30;20338;-84
2023/07/28 16:01:20;;;;;;;6.33;3.27;;;19.70;99.90;;;;;;4737254;30;20321;-83
2023/07/28 16:03:47;;;;;;;4.77;3.67;;;19.40;99.90;;;;;;4738021;30;20745;-81
2023/07/28 16:06:14;;;;;;;5.40;3.30;;;19.20;99.90;;;;;;4737292;30;20233;-83
2023/07/28 16:08:41;;;;;;;4.07;3.00;;;19.00;99.90;;;;;;4737017;30;20222;-82
2023/07/28 16:11:09;;;;;;;4.77;2.97;;;18.90;99.90;;;;;;4722544;30;20230;-82
2023/07/28 16:13:36;;;;;;;4.10;2.93;;;18.80;99.90;;;;;;4736532;30;20599;-83
2023/07/28 16:16:04;;;;;;;2.73;2.50;;;18.70;99.90;;;;;;4736736;30;20206;-83
2023/07/28 16:18:31;;;;;;;5.93;3.13;;;18.70;99.90;;;;;;4686312;30;20331;-83
2023/07/28 16:20:59;;;;;;;4.90;3.27;;;18.60;99.90;;;;;;4701158;30;20212;-82
2023/07/28 16:23:26;;;;;;;5.77;3.90;;;18.70;99.90;;;;;;4700742;30;20521;-83
2023/07/28 16:25:53;;;;;;;6.07;3.90;;;18.50;99.90;;;;;;4700490;30;20211;-80
2023/07/28 16:28:20;;;;;;;8.33;4.13;;;18.50;99.90;;;;;;4700363;30;20231;-80
2023/07/28 16:30:47;;;;;;;5.60;4.27;;;18.60;99.90;;;;;;4700297;30;20230;-79
2023/07/28 16:33:14;;;;;;;7.83;4.30;;;18.70;99.90;;;;;;4700436;30;20235;-80
2023/07/28 16:35:42;;;;;;;5.50;3.60;;;18.70;99.90;;;;;;4703827;30;20592;-81
2023/07/28 16:38:09;;;;;;;6.63;3.30;;;18.50;99.90;;;;;;4736264;30;20222;-80
2023/07/28 16:40:36;;;;;;;8.13;2.90;;;18.50;99.90;;;;;;4737474;30;20232;-81
2023/07/28 16:43:03;;;;;;;3.27;1.90;;;18.60;99.90;;;;;;4737249;30;20218;-80
2023/07/28 16:45:30;;;;;;;2.40;1.73;;;18.40;99.90;;;;;;4736326;30;20218;-81
2023/07/28 16:47:57;;;;;;;4.57;1.93;;;18.30;99.90;;;;;;4737193;30;20238;-80
2023/07/28 16:50:24;;;;;;;4.30;1.63;;;18.30;99.90;;;;;;4737466;30;20554;-80
2023/07/28 16:52:51;;;;;;;1.87;1.30;;;18.20;99.90;;;;;;4735712;30;20283;-80
2023/07/28 16:55:18;;;;;;;2.63;1.70;;;18.20;99.90;;;;;;4736157;30;20234;-79
2023/07/28 16:57:45;;;;;;;3.27;1.37;;;18.20;99.90;;;;;;4736154;30;20631;-80
2023/07/28 17:00:13;;;;;;;5.27;1.60;;;18.20;99.90;;;;;;4736158;30;20515;-81
